Time,TemperatureF,DewpointF,PressureIn,WindDirection,WindDirectionDegrees,WindSpeedMPH,WindSpeedGustMPH,Humidity,HourlyPrecipIn,Conditions,Clouds,dailyrainin,SoftwareType,DateUTC
2013-06-28 00:00:00,65.6,64.1,29.75,ENE,68,0.0,2.0,95,0.00,,---,0.00,VWS V14.01,2013-06-28 04:00:00,
2013-06-28 00:15:00,65.5,64.0,29.75,ENE,68,0.0,0.0,95,0.00,,---,0.00,VWS V14.01,2013-06-28 04:15:00,
2013-06-28 00:30:00,65.3,63.8,29.75,ENE,68,0.0,0.0,95,0.00,,---,0.00,VWS V14.01,2013-06-28 04:30:00,
2013-06-28 00:45:00,65.2,64.0,29.74,ENE,68,0.0,0.0,96,0.00,,---,0.00,VWS V14.01,2013-06-28 04:45:00,
2013-06-28 01:00:00,65.0,63.8,29.74,ENE,68,0.0,0.0,96,0.00,,---,0.00,VWS V14.01,2013-06-28 05:00:00,
2013-06-28 01:15:00,64.9,63.7,29.75,ENE,68,0.0,0.0,96,0.00,,---,0.00,VWS V14.01,2013-06-28 05:15:00,
2013-06-28 01:30:00,64.7,63.5,29.73,ENE,68,0.0,0.0,96,0.00,,---,0.00,VWS V14.01,2013-06-28 05:30:00,
2013-06-28 01:45:00,64.5,63.3,29.72,ENE,68,0.0,0.0,96,0.00,,---,0.00,VWS V14.01,2013-06-28 05:45:00,
2013-06-28 02:00:00,64.5,63.3,29.71,East,90,0.0,1.0,96,0.00,,---,0.00,VWS V14.01,2013-06-28 06:00:00,
2013-06-28 02:15:00,64.4,63.2,29.70,South,180,0.0,1.0,96,0.00,,---,0.00,VWS V14.01,2013-06-28 06:15:00,
2013-06-28 02:30:00,64.3,63.1,29.70,South,180,0.0,0.0,96,0.00,,---,0.00,VWS V14.01,2013-06-28 06:30:00,
2013-06-28 02:45:00,64.2,63.0,29.69,West,270,0.0,2.0,96,0.00,,---,0.00,VWS V14.01,2013-06-28 06:45:00,
2013-06-28 03:00:00,64.1,62.9,29.69,West,270,0.0,1.0,96,0.01,,---,0.01,VWS V14.01,2013-06-28 07:00:00,
2013-06-28 03:15:00,63.8,62.6,29.68,West,270,0.0,0.0,96,0.03,,---,0.03,VWS V14.01,2013-06-28 07:15:00,
2013-06-28 03:30:00,63.5,62.3,29.67,West,270,0.0,1.0,96,0.04,,---,0.04,VWS V14.01,2013-06-28 07:30:00,
2013-06-28 03:45:00,63.2,62.0,29.66,NW,315,0.0,3.0,96,0.06,,---,0.06,VWS V14.01,2013-06-28 07:45:00,
2013-06-28 04:00:00,63.0,61.8,29.65,WNW,292,0.0,3.0,96,0.07,,---,0.07,VWS V14.01,2013-06-28 08:00:00,
2013-06-28 04:15:00,63.0,61.8,29.65,NNW,338,1.0,5.0,96,0.06,,---,0.07,VWS V14.01,2013-06-28 08:15:00,
2013-06-28 04:30:00,63.2,61.5,29.63,North,0,1.0,6.0,94,0.05,,---,0.08,VWS V14.01,2013-06-28 08:30:00,
2013-06-28 04:45:00,63.2,61.2,29.62,North,0,2.0,10.0,93,0.05,,---,0.09,VWS V14.01,2013-06-28 08:45:00,
2013-06-28 05:00:00,62.9,60.8,29.62,North,0,2.0,8.0,93,0.03,,---,0.09,VWS V14.01,2013-06-28 09:00:00,
2013-06-28 05:15:00,62.4,60.3,29.62,North,0,2.0,7.0,93,0.04,,---,0.11,VWS V14.01,2013-06-28 09:15:00,
2013-06-28 05:30:00,61.9,59.9,29.62,North,0,3.0,12.0,93,0.08,,---,0.15,VWS V14.01,2013-06-28 09:30:00,
2013-06-28 05:45:00,61.4,59.4,29.61,North,0,4.0,11.0,93,0.13,,---,0.21,VWS V14.01,2013-06-28 09:45:00,
2013-06-28 06:00:00,60.9,58.9,29.59,North,0,3.0,10.0,93,0.17,,---,0.26,VWS V14.01,2013-06-28 10:00:00,
2013-06-28 06:15:00,60.5,58.8,29.60,North,0,3.0,11.0,94,0.21,,---,0.30,VWS V14.01,2013-06-28 10:15:00,
2013-06-28 06:30:00,60.0,58.3,29.59,North,0,2.0,7.0,94,0.24,,---,0.35,VWS V14.01,2013-06-28 10:30:00,
2013-06-28 06:45:00,59.6,58.2,29.59,West,270,1.0,7.0,95,0.23,,---,0.38,VWS V14.01,2013-06-28 10:45:00,
2013-06-28 07:00:00,59.7,58.3,29.59,WSW,248,1.0,7.0,95,0.18,,---,0.39,VWS V14.01,2013-06-28 11:00:00,
2013-06-28 07:15:00,59.9,58.5,29.58,WNW,292,1.0,6.0,95,0.15,,---,0.41,VWS V14.01,2013-06-28 11:15:00,
2013-06-28 07:30:00,59.9,58.8,29.58,WNW,292,0.0,5.0,96,0.11,,---,0.41,VWS V14.01,2013-06-28 11:30:00,
2013-06-28 07:45:00,60.0,58.6,29.57,West,270,0.0,4.0,95,0.07,,---,0.42,VWS V14.01,2013-06-28 11:45:00,
2013-06-28 08:00:00,59.9,58.5,29.57,SW,225,0.0,1.0,95,0.06,,---,0.44,VWS V14.01,2013-06-28 12:00:00,
2013-06-28 08:15:00,60.2,59.1,29.55,SW,225,0.0,0.0,96,0.05,,---,0.44,VWS V14.01,2013-06-28 12:15:00,
2013-06-28 08:30:00,60.9,59.8,29.55,West,270,0.0,2.0,96,0.04,,---,0.45,VWS V14.01,2013-06-28 12:30:00,
2013-06-28 08:45:00,61.1,59.7,29.54,NW,315,1.0,8.0,95,0.05,,---,0.46,VWS V14.01,2013-06-28 12:45:00,
2013-06-28 09:00:00,61.3,59.9,29.53,West,270,1.0,8.0,95,0.07,,---,0.49,VWS V14.01,2013-06-28 13:00:00,
2013-06-28 09:15:00,61.6,60.2,29.53,West,270,0.0,4.0,95,0.05,,---,0.49,VWS V14.01,2013-06-28 13:15:00,
2013-06-28 09:30:00,61.5,59.8,29.53,West,270,1.0,5.0,94,0.07,,---,0.51,VWS V14.01,2013-06-28 13:30:00,
2013-06-28 09:45:00,61.4,60.0,29.53,WSW,248,0.0,6.0,95,0.07,,---,0.52,VWS V14.01,2013-06-28 13:45:00,
2013-06-28 10:00:00,61.9,60.5,29.52,West,270,0.0,3.0,95,0.06,,---,0.52,VWS V14.01,2013-06-28 14:00:00,
2013-06-28 10:15:00,62.6,61.2,29.52,WNW,292,0.0,4.0,95,0.03,,---,0.52,VWS V14.01,2013-06-28 14:15:00,
2013-06-28 10:30:00,62.5,60.8,29.52,West,270,1.0,5.0,94,0.03,,---,0.52,VWS V14.01,2013-06-28 14:30:00,
2013-06-28 10:45:00,62.7,61.2,29.50,SW,225,1.0,7.0,95,0.02,,---,0.53,VWS V14.01,2013-06-28 14:45:00,
2013-06-28 11:00:00,62.7,60.7,29.51,SW,225,1.0,7.0,93,0.03,,---,0.55,VWS V14.01,2013-06-28 15:00:00,
2013-06-28 11:15:00,62.3,60.8,29.51,SW,225,1.0,4.0,95,0.04,,---,0.56,VWS V14.01,2013-06-28 15:15:00,
2013-06-28 11:30:00,62.3,61.2,29.52,WSW,248,0.0,2.0,96,0.04,,---,0.56,VWS V14.01,2013-06-28 15:30:00,
2013-06-28 11:45:00,62.4,61.0,29.52,WSW,248,0.0,0.0,95,0.04,,---,0.56,VWS V14.01,2013-06-28 15:45:00,
2013-06-28 12:00:00,64.4,62.6,29.51,WSW,248,0.0,3.0,94,0.03,,---,0.56,VWS V14.01,2013-06-28 16:00:00,
2013-06-28 12:15:00,66.2,63.8,29.51,South,180,1.0,5.0,92,0.01,,---,0.56,VWS V14.01,2013-06-28 16:15:00,
2013-06-28 12:30:00,65.9,62.6,29.51,South,180,1.0,6.0,89,0.00,,---,0.56,VWS V14.01,2013-06-28 16:30:00,
2013-06-28 12:45:00,66.0,63.3,29.50,NE,45,0.0,5.0,91,0.00,,---,0.56,VWS V14.01,2013-06-28 16:45:00,
2013-06-28 13:00:00,67.7,64.7,29.50,NE,45,0.0,5.0,90,0.00,,---,0.56,VWS V14.01,2013-06-28 17:00:00,
2013-06-28 13:15:00,69.4,65.4,29.50,South,180,1.0,7.0,87,0.00,,---,0.56,VWS V14.01,2013-06-28 17:15:00,
2013-06-28 13:30:00,69.3,64.9,29.50,NW,315,0.0,3.0,86,0.00,,---,0.56,VWS V14.01,2013-06-28 17:30:00,
2013-06-28 13:45:00,69.5,65.5,29.49,SSW,202,1.0,7.0,87,0.00,,---,0.56,VWS V14.01,2013-06-28 17:45:00,
2013-06-28 14:00:00,70.2,66.2,29.49,South,180,1.0,9.0,87,0.00,,---,0.56,VWS V14.01,2013-06-28 18:00:00,
2013-06-28 14:15:00,71.4,65.6,29.49,South,180,2.0,7.0,82,0.00,,---,0.56,VWS V14.01,2013-06-28 18:15:00,
2013-06-28 14:30:00,71.9,66.5,29.49,South,180,2.0,10.0,83,0.00,,---,0.56,VWS V14.01,2013-06-28 18:30:00,
2013-06-28 14:45:00,72.8,67.0,29.49,SSW,202,1.0,7.0,82,0.00,,---,0.56,VWS V14.01,2013-06-28 18:45:00,
2013-06-28 15:00:00,72.8,66.6,29.48,SSW,202,2.0,10.0,81,0.00,,---,0.56,VWS V14.01,2013-06-28 19:00:00,
2013-06-28 15:15:00,72.8,66.3,29.48,South,180,1.0,8.0,80,0.00,,---,0.56,VWS V14.01,2013-06-28 19:15:00,
2013-06-28 15:30:00,72.6,66.1,29.48,South,180,1.0,12.0,80,0.00,,---,0.56,VWS V14.01,2013-06-28 19:30:00,
2013-06-28 15:45:00,73.2,67.4,29.47,ENE,68,1.0,10.0,82,0.00,,---,0.56,VWS V14.01,2013-06-28 19:45:00,
2013-06-28 16:00:00,74.1,66.8,29.47,South,180,1.0,8.0,78,0.00,,---,0.56,VWS V14.01,2013-06-28 20:00:00,
2013-06-28 16:15:00,74.7,67.0,29.47,South,180,2.0,9.0,77,0.00,,---,0.56,VWS V14.01,2013-06-28 20:15:00,
2013-06-28 16:30:00,74.6,68.4,29.47,South,180,1.0,6.0,81,0.00,,---,0.56,VWS V14.01,2013-06-28 20:30:00,
2013-06-28 16:45:00,74.6,68.4,29.47,South,180,0.0,5.0,81,0.00,,---,0.56,VWS V14.01,2013-06-28 20:45:00,
2013-06-28 17:00:00,75.8,67.7,29.48,South,180,2.0,9.0,76,0.00,,---,0.56,VWS V14.01,2013-06-28 21:00:00,
2013-06-28 17:15:00,74.3,68.4,29.47,SSE,158,1.0,6.0,82,0.00,,---,0.56,VWS V14.01,2013-06-28 21:15:00,
2013-06-28 17:30:00,73.7,68.6,29.47,South,180,0.0,5.0,84,0.00,,---,0.56,VWS V14.01,2013-06-28 21:30:00,
2013-06-28 17:45:00,73.7,67.9,29.47,South,180,0.0,3.0,82,0.00,,---,0.56,VWS V14.01,2013-06-28 21:45:00,
2013-06-28 18:00:00,74.3,67.7,29.46,SE,135,0.0,5.0,80,0.00,,---,0.56,VWS V14.01,2013-06-28 22:00:00,
2013-06-28 18:15:00,75.2,69.3,29.47,SSW,202,1.0,5.0,82,0.00,,---,0.56,VWS V14.01,2013-06-28 22:15:00,
2013-06-28 18:30:00,76.4,68.3,29.46,South,180,0.0,6.0,76,0.00,,---,0.56,VWS V14.01,2013-06-28 22:30:00,
2013-06-28 18:45:00,74.8,68.2,29.48,South,180,1.0,4.0,80,0.00,,---,0.56,VWS V14.01,2013-06-28 22:45:00,
2013-06-28 19:00:00,73.3,68.2,29.48,SSE,158,0.0,3.0,84,0.00,,---,0.56,VWS V14.01,2013-06-28 23:00:00,
2013-06-28 19:15:00,72.8,67.0,29.48,SSW,202,1.0,7.0,82,0.00,,---,0.56,VWS V14.01,2013-06-28 23:15:00,
2013-06-28 19:30:00,71.7,67.6,29.49,South,180,0.0,1.0,87,0.00,,---,0.56,VWS V14.01,2013-06-28 23:30:00,
2013-06-28 19:45:00,70.0,66.9,29.49,SSE,158,0.0,1.0,90,0.00,,---,0.56,VWS V14.01,2013-06-28 23:45:00,
2013-06-28 20:00:00,69.7,66.6,29.49,South,180,0.0,3.0,90,0.00,,---,0.56,VWS V14.01,2013-06-29 00:00:00,
2013-06-28 20:15:00,69.0,66.3,29.50,South,180,0.0,0.0,91,0.00,,---,0.56,VWS V14.01,2013-06-29 00:15:00,
2013-06-28 20:30:00,68.3,65.9,29.50,South,180,0.0,0.0,92,0.00,,---,0.56,VWS V14.01,2013-06-29 00:30:00,
2013-06-28 20:45:00,67.7,65.6,29.50,SE,135,0.0,1.0,93,0.00,,---,0.56,VWS V14.01,2013-06-29 00:45:00,
2013-06-28 21:00:00,67.1,64.7,29.50,East,90,1.0,3.0,92,0.00,,---,0.56,VWS V14.01,2013-06-29 01:00:00,
2013-06-28 21:15:00,66.5,64.4,29.51,East,90,0.0,0.0,93,0.00,,---,0.56,VWS V14.01,2013-06-29 01:15:00,
2013-06-28 21:30:00,65.8,64.0,29.52,East,90,0.0,0.0,94,0.00,,---,0.56,VWS V14.01,2013-06-29 01:30:00,
2013-06-28 21:45:00,65.6,64.1,29.51,East,90,0.0,0.0,95,0.00,,---,0.56,VWS V14.01,2013-06-29 01:45:00,
2013-06-28 22:00:00,65.2,63.7,29.53,ENE,68,0.0,1.0,95,0.00,,---,0.56,VWS V14.01,2013-06-29 02:00:00,
2013-06-28 22:15:00,64.9,63.4,29.52,ENE,68,0.0,1.0,95,0.00,,---,0.56,VWS V14.01,2013-06-29 02:15:00,
2013-06-28 22:30:00,64.7,63.5,29.52,ENE,68,0.0,0.0,96,0.00,,---,0.56,VWS V14.01,2013-06-29 02:30:00,
2013-06-28 22:45:00,64.8,63.6,29.53,ENE,68,0.0,0.0,96,0.00,,---,0.56,VWS V14.01,2013-06-29 02:45:00,
2013-06-28 23:00:00,64.5,63.3,29.53,ENE,68,0.0,0.0,96,0.00,,---,0.56,VWS V14.01,2013-06-29 03:00:00,
2013-06-28 23:15:00,64.1,62.9,29.52,ENE,68,0.0,0.0,96,0.00,,---,0.56,VWS V14.01,2013-06-29 03:15:00,
2013-06-28 23:30:00,63.8,62.6,29.53,ENE,68,0.0,0.0,96,0.00,,---,0.56,VWS V14.01,2013-06-29 03:30:00,
2013-06-28 23:45:00,63.5,62.3,29.52,ENE,68,0.0,0.0,96,0.00,,---,0.56,VWS V14.01,2013-06-29 03:45:00,